Time;durP1;ratioP1;P1;durP2;ratioP2;P2;SDS_P1;SDS_P2;PMS_P1;PMS_P2;Temp;Humidity;BMP_temperature;BMP_pressure;BME280_temperature;BME280_humidity;BME280_pressure;Samples;Min_cycle;Max_cycle;Signal;HPM_P1;HPM_P2
2023/06/30 00:00:56;;;;;;;;;;;;;;;22.34;55.34;97871.34;7367893;19;20333;-70
2023/06/30 00:03:24;;;;;;;;;;;;;;;22.38;55.38;97871.69;7372283;19;19914;-70
2023/06/30 00:05:51;;;;;;;;;;;;;;;22.42;54.78;97866.63;7370751;19;19947;-71
2023/06/30 00:08:18;;;;;;;;;;;;;;;22.44;55.21;97869.91;7373902;19;21032;-70
2023/06/30 00:10:45;;;;;;;;;;;;;;;22.46;54.71;97865.06;7367207;19;19919;-70
2023/06/30 00:13:12;;;;;;;;;;;;;;;22.47;55.00;97869.41;7370156;19;19930;-70
2023/06/30 00:15:39;;;;;;;;;;;;;;;22.47;55.56;97874.81;7365684;19;19907;-71
2023/06/30 00:18:06;;;;;;;;;;;;;;;22.49;55.67;97860.00;7367601;19;19922;-70
2023/06/30 00:20:33;;;;;;;;;;;;;;;22.50;54.55;97866.22;7369941;19;20392;-70
2023/06/30 00:23:00;;;;;;;;;;;;;;;22.55;54.65;97850.13;7370447;19;19922;-71
2023/06/30 00:25:27;;;;;;;;;;;;;;;22.54;54.60;97852.00;7370445;19;19923;-71
2023/06/30 00:27:54;;;;;;;;;;;;;;;22.56;54.90;97841.81;7370154;19;19952;-70
2023/06/30 00:30:20;;;;;;;;;;;;;;;22.62;54.56;97848.09;7374893;19;20345;-71
2023/06/30 00:32:47;;;;;;;;;;;;;;;22.64;54.46;97837.84;7369206;19;20352;-70
2023/06/30 00:35:14;;;;;;;;;;;;;;;22.61;56.13;97832.97;7375723;19;20643;-71
2023/06/30 00:37:41;;;;;;;;;;;;;;;22.50;56.04;97832.00;7376980;19;19982;-70
2023/06/30 00:40:09;;;;;;;;;;;;;;;22.47;55.81;97834.38;7377973;19;19931;-71
2023/06/30 00:42:35;;;;;;;;;;;;;;;22.48;55.52;97827.91;7376206;19;19933;-70
2023/06/30 00:45:03;;;;;;;;;;;;;;;22.63;54.89;97820.06;7376077;19;19918;-70
2023/06/30 00:47:29;;;;;;;;;;;;;;;22.68;54.45;97820.13;7372208;19;19919;-71
2023/06/30 00:49:56;;;;;;;;;;;;;;;22.39;55.85;97813.22;7375158;19;19961;-70
2023/06/30 00:52:23;;;;;;;;;;;;;;;22.46;56.12;97813.84;7376758;19;20345;-70
2023/06/30 00:54:50;;;;;;;;;;;;;;;22.48;56.18;97811.72;7374969;19;19927;-71
2023/06/30 00:57:16;;;;;;;;;;;;;;;22.46;55.55;97813.84;7376009;19;20314;-70
2023/06/30 00:59:43;;;;;;;;;;;;;;;22.44;55.47;97807.91;7373502;19;19919;-71
2023/06/30 01:02:12;;;;;;;;;;;;;;;22.35;55.75;97802.94;7377390;19;19922;-70
2023/06/30 01:04:52;;;;;;;;;;;;;;;22.13;56.56;97808.19;7373757;19;19922;-71
2023/06/30 01:07:23;;;;;;;;;;;;;;;22.13;55.91;97808.19;7372584;19;19994;-70
2023/06/30 01:10:05;;;;;;;;;;;;;;;22.06;55.85;97804.81;7366961;19;20373;-70
2023/06/30 01:12:32;;;;;;;;;;;;;;;22.06;55.73;97796.75;7374294;19;19918;-71
2023/06/30 01:14:58;;;;;;;;;;;;;;;22.13;55.26;97802.00;7376392;19;19999;-70
2023/06/30 01:17:25;;;;;;;;;;;;;;;22.20;55.00;97793.78;7375466;19;19951;-71
2023/06/30 01:19:53;;;;;;;;;;;;;;;22.21;55.46;97798.91;7372826;19;19919;-71
2023/06/30 01:22:24;;;;;;;;;;;;;;;22.17;56.05;97792.38;7374858;19;19926;-71
2023/06/30 01:24:53;;;;;;;;;;;;;;;22.04;56.20;97792.69;7368400;19;19951;-71
2023/06/30 01:27:21;;;;;;;;;;;;;;;22.07;56.33;97792.19;7370721;19;19919;-71
2023/06/30 01:29:49;;;;;;;;;;;;;;;21.94;56.54;97796.03;7369204;19;19922;-70
2023/06/30 01:32:16;;;;;;;;;;;;;;;22.00;55.87;97789.66;7376355;19;20011;-71
2023/06/30 01:34:44;;;;;;;;;;;;;;;21.92;56.54;97798.94;7372725;19;20412;-70
2023/06/30 01:37:12;;;;;;;;;;;;;;;21.88;57.42;97794.28;7373401;19;19915;-71
2023/06/30 01:39:40;;;;;;;;;;;;;;;21.89;57.50;97790.53;7371993;19;19997;-70
2023/06/30 01:42:06;;;;;;;;;;;;;;;21.92;57.45;97804.34;7372012;19;19926;-70
2023/06/30 01:44:34;;;;;;;;;;;;;;;21.90;58.18;97798.38;7371739;19;20760;-71
2023/06/30 01:47:01;;;;;;;;;;;;;;;21.90;58.12;97795.66;7370975;19;19938;-71
2023/06/30 01:49:28;;;;;;;;;;;;;;;21.90;58.21;97792.16;7372979;19;19935;-71
2023/06/30 01:51:55;;;;;;;;;;;;;;;21.80;58.12;97786.59;7373408;19;19983;-70
2023/06/30 01:54:21;;;;;;;;;;;;;;;21.79;57.42;97771.50;7373294;19;20879;-71
2023/06/30 01:56:49;;;;;;;;;;;;;;;21.85;57.08;97776.75;7368899;19;21326;-71
2023/06/30 01:59:16;;;;;;;;;;;;;;;21.87;58.12;97776.50;7374234;19;19925;-70
2023/06/30 02:01:42;;;;;;;;;;;;;;;21.80;58.07;97768.59;7370633;19;19923;-70
2023/06/30 02:04:10;;;;;;;;;;;;;;;21.79;57.79;97764.25;7372506;19;20340;-70
2023/06/30 02:06:36;;;;;;;;;;;;;;;21.80;57.62;97771.28;7369263;19;19923;-71
2023/06/30 02:09:03;;;;;;;;;;;;;;;21.75;57.58;97767.66;7371090;19;19938;-70
2023/06/30 02:11:30;;;;;;;;;;;;;;;21.78;57.49;97770.69;7372195;19;19925;-71
2023/06/30 02:13:57;;;;;;;;;;;;;;;21.77;57.67;97769.06;7372409;19;19951;-70
2023/06/30 02:16:23;;;;;;;;;;;;;;;21.78;57.81;97768.00;7371599;19;19933;-70
2023/06/30 02:18:54;;;;;;;;;;;;;;;21.74;58.21;97769.53;7373296;19;19952;-70
2023/06/30 02:21:21;;;;;;;;;;;;;;;21.72;57.89;97771.66;7373608;19;20325;-70
2023/06/30 02:23:48;;;;;;;;;;;;;;;21.57;58.26;97768.72;7371425;19;19933;-70
2023/06/30 02:26:16;;;;;;;;;;;;;;;21.49;58.95;97775.28;7370976;19;19926;-70
2023/06/30 02:28:42;;;;;;;;;;;;;;;21.43;59.35;97771.69;7363989;19;20400;-70
2023/06/30 02:31:09;;;;;;;;;;;;;;;21.38;59.35;97776.97;7371869;19;19939;-70
2023/06/30 02:33:36;;;;;;;;;;;;;;;21.34;59.19;97781.16;7367001;19;19969;-70
2023/06/30 02:36:02;;;;;;;;;;;;;;;21.29;59.32;97782.94;7368700;19;19928;-70
2023/06/30 02:38:29;;;;;;;;;;;;;;;21.26;59.63;97781.53;7373477;19;19929;-71
2023/06/30 02:40:56;;;;;;;;;;;;;;;21.31;59.05;97783.53;7372609;19;19934;-70
2023/06/30 02:43:23;;;;;;;;;;;;;;;21.27;59.48;97785.84;7353126;19;19925;-70
2023/06/30 02:45:49;;;;;;;;;;;;;;;21.23;59.37;97784.72;7359683;19;19998;-70
2023/06/30 02:48:16;;;;;;;;;;;;;;;21.23;59.41;97782.03;7368927;19;19930;-70
2023/06/30 02:50:43;;;;;;;;;;;;;;;21.33;59.50;97781.38;7369510;19;20486;-70
2023/06/30 02:53:12;;;;;;;;;;;;;;;21.34;59.48;97786.53;7365870;19;19922;-70
2023/06/30 02:55:39;;;;;;;;;;;;;;;21.36;58.73;97784.44;7364788;19;19927;-70
2023/06/30 02:58:09;;;;;;;;;;;;;;;21.44;59.81;97780.59;7368953;19;19925;-70
2023/06/30 03:00:36;;;;;;;;;;;;;;;21.43;60.19;97776.22;7364624;19;20242;-70
2023/06/30 03:03:04;;;;;;;;;;;;;;;21.45;58.96;97777.63;7371142;19;20753;-70
2023/06/30 03:05:34;;;;;;;;;;;;;;;21.50;58.87;97776.09;7368502;19;19922;-71
2023/06/30 03:08:03;;;;;;;;;;;;;;;21.44;59.48;97776.00;7367153;19;19923;-70
2023/06/30 03:10:30;;;;;;;;;;;;;;;21.58;58.96;97778.41;7369438;19;20013;-70
2023/06/30 03:12:57;;;;;;;;;;;;;;;21.58;58.90;97773.84;7369740;19;19956;-70
2023/06/30 03:15:25;;;;;;;;;;;;;;;21.34;59.52;97770.41;7366801;19;19934;-70
2023/06/30 03:17:53;;;;;;;;;;;;;;;21.12;60.13;97772.13;7366154;19;19930;-71
2023/06/30 03:20:21;;;;;;;;;;;;;;;21.05;60.83;97766.88;7367017;19;19922;-70
2023/06/30 03:22:48;;;;;;;;;;;;;;;21.14;60.26;97754.66;7367366;19;19919;-70
2023/06/30 03:25:15;;;;;;;;;;;;;;;21.23;59.52;97752.44;7368289;19;19930;-70
2023/06/30 03:27:42;;;;;;;;;;;;;;;21.20;60.03;97744.84;7359121;19;20027;-71
2023/06/30 03:30:08;;;;;;;;;;;;;;;21.03;60.48;97745.56;7367094;19;19933;-71
2023/06/30 03:32:39;;;;;;;;;;;;;;;20.87;60.45;97742.81;7367507;19;19933;-71
2023/06/30 03:35:07;;;;;;;;;;;;;;;21.01;60.02;97739.66;7366989;19;19923;-70
2023/06/30 03:37:36;;;;;;;;;;;;;;;20.98;60.59;97745.47;7365245;19;19922;-70
2023/06/30 03:40:05;;;;;;;;;;;;;;;20.90;61.16;97742.34;7367912;19;19910;-70
2023/06/30 03:42:32;;;;;;;;;;;;;;;21.00;60.53;97743.38;7370990;19;20256;-70
2023/06/30 03:45:00;;;;;;;;;;;;;;;21.17;59.83;97737.22;7370626;19;19922;-70
2023/06/30 03:47:30;;;;;;;;;;;;;;;21.14;60.13;97738.53;7368814;19;19998;-70
2023/06/30 03:49:56;;;;;;;;;;;;;;;21.18;60.78;97734.31;7363695;19;20283;-70
2023/06/30 03:52:25;;;;;;;;;;;;;;;21.24;59.96;97735.22;7368335;19;20005;-70
2023/06/30 03:54:52;;;;;;;;;;;;;;;21.14;60.20;97737.72;7365617;19;19919;-70
2023/06/30 03:57:19;;;;;;;;;;;;;;;21.28;60.12;97739.09;7368452;19;20341;-70
2023/06/30 03:59:46;;;;;;;;;;;;;;;21.17;60.66;97734.53;7367118;19;19943;-70
2023/06/30 04:02:13;;;;;;;;;;;;;;;21.27;60.16;97742.81;7365024;19;19926;-70
2023/06/30 04:04:39;;;;;;;;;;;;;;;21.35;59.77;97745.13;7368685;19;20269;-70
2023/06/30 04:07:06;;;;;;;;;;;;;;;21.40;60.03;97749.81;7378208;19;19933;-70
2023/06/30 04:09:33;;;;;;;;;;;;;;;21.47;60.05;97754.00;7375039;19;19959;-70
2023/06/30 04:12:00;;;;;;;;;;;;;;;21.31;59.97;97751.25;7374240;19;19954;-70
2023/06/30 04:14:27;;;;;;;;;;;;;;;21.12;60.28;97756.81;7377003;19;20459;-70
2023/06/30 04:16:53;;;;;;;;;;;;;;;21.37;59.96;97756.47;7377810;19;19939;-70
2023/06/30 04:19:22;;;;;;;;;;;;;;;21.44;59.64;97754.47;7375299;19;19919;-69
2023/06/30 04:21:49;;;;;;;;;;;;;;;21.57;59.28;97752.56;7371920;19;19915;-72
2023/06/30 04:24:16;;;;;;;;;;;;;;;21.57;59.12;97747.19;7375488;19;19990;-69
2023/06/30 04:26:42;;;;;;;;;;;;;;;21.46;58.96;97738.09;7367164;19;19922;-72
2023/06/30 04:29:09;;;;;;;;;;;;;;;21.65;59.26;97742.22;7374626;19;20276;-71
2023/06/30 04:31:36;;;;;;;;;;;;;;;21.82;59.92;97742.22;7367012;19;19978;-72
2023/06/30 04:34:03;;;;;;;;;;;;;;;21.99;59.40;97739.56;7379226;19;20148;-71
2023/06/30 04:36:29;;;;;;;;;;;;;;;22.02;58.54;97749.81;7374352;19;19915;-72
2023/06/30 04:38:57;;;;;;;;;;;;;;;22.12;58.74;97744.59;7374550;19;19991;-72
2023/06/30 04:41:25;;;;;;;;;;;;;;;22.29;57.97;97747.31;7372815;19;19925;-72
2023/06/30 04:43:52;;;;;;;;;;;;;;;22.37;57.85;97745.28;7364571;19;19994;-72
2023/06/30 04:46:18;;;;;;;;;;;;;;;22.33;57.94;97753.84;7371415;19;20353;-72
2023/06/30 04:48:45;;;;;;;;;;;;;;;22.38;58.47;97752.28;7366693;19;19986;-71
2023/06/30 04:51:13;;;;;;;;;;;;;;;22.57;57.10;97746.38;7372489;19;19922;-71
2023/06/30 04:53:40;;;;;;;;;;;;;;;22.56;57.30;97743.91;7369531;19;19918;-72
2023/06/30 04:56:07;;;;;;;;;;;;;;;22.33;58.02;97750.34;7370036;19;19978;-71
2023/06/30 04:58:33;;;;;;;;;;;;;;;22.32;58.33;97752.19;7369573;19;19934;-72
2023/06/30 05:01:00;;;;;;;;;;;;;;;22.07;58.74;97747.22;7369167;19;19926;-73
2023/06/30 05:03:27;;;;;;;;;;;;;;;21.92;59.77;97752.34;7377920;19;20348;-72
2023/06/30 05:05:56;;;;;;;;;;;;;;;22.09;59.02;97755.03;7371188;19;19915;-72
2023/06/30 05:08:23;;;;;;;;;;;;;;;22.04;58.95;97750.41;7370731;19;19939;-72
2023/06/30 05:10:50;;;;;;;;;;;;;;;22.01;59.00;97752.75;7362233;19;19915;-72
2023/06/30 05:13:17;;;;;;;;;;;;;;;21.96;60.04;97749.97;7363209;19;19923;-72
2023/06/30 05:15:43;;;;;;;;;;;;;;;22.12;59.07;97754.56;7364065;19;19918;-72
2023/06/30 05:18:11;;;;;;;;;;;;;;;22.06;60.18;97763.63;7365339;19;20262;-72
2023/06/30 05:20:39;;;;;;;;;;;;;;;22.08;59.99;97754.22;7369353;19;19915;-73
2023/06/30 05:23:05;;;;;;;;;;;;;;;22.13;59.38;97759.69;7368872;19;20260;-70
2023/06/30 05:25:32;;;;;;;;;;;;;;;22.16;59.36;97755.69;7362442;19;20345;-70
2023/06/30 05:27:59;;;;;;;;;;;;;;;22.22;58.99;97754.75;7359710;19;20595;-72
2023/06/30 05:30:26;;;;;;;;;;;;;;;22.30;58.62;97766.97;7363472;19;19950;-70
2023/06/30 05:32:53;;;;;;;;;;;;;;;22.37;57.85;97769.53;7361612;19;19933;-72
2023/06/30 05:35:19;;;;;;;;;;;;;;;22.31;58.32;97768.63;7358773;19;20347;-72
2023/06/30 05:37:46;;;;;;;;;;;;;;;;;;7366466;19;19930;-72
2023/06/30 05:40:13;;;;;;;;;;;;;;;22.33;57.67;97772.72;7371486;19;20416;-72
2023/06/30 05:42:39;;;;;;;;;;;;;;;22.19;58.48;97774.09;7373387;19;19967;-72
2023/06/30 05:45:06;;;;;;;;;;;;;;;22.42;58.38;97781.19;7372838;19;19933;-72
2023/06/30 05:47:33;;;;;;;;;;;;;;;22.47;58.08;97781.28;7373912;19;19923;-73
2023/06/30 05:49:59;;;;;;;;;;;;;;;22.22;59.98;97784.41;7366837;19;19922;-73
2023/06/30 05:52:27;;;;;;;;;;;;;;;22.00;61.78;97797.72;7374953;19;19990;-72
2023/06/30 05:54:53;;;;;;;;;;;;;;;21.83;63.02;97791.53;7372346;19;19962;-73
2023/06/30 05:57:20;;;;;;;;;;;;;;;21.57;65.53;97790.25;7374626;19;19930;-74
2023/06/30 05:59:47;;;;;;;;;;;;;;;21.41;67.28;97811.47;7372512;19;19926;-74
2023/06/30 06:02:14;;;;;;;;;;;;;;;21.15;71.43;97812.00;7371379;19;19919;-74
2023/06/30 06:04:40;;;;;;;;;;;;;;;20.92;72.29;97816.34;7366702;19;19926;-74
2023/06/30 06:07:08;;;;;;;;;;;;;;;20.70;74.71;97815.31;7372456;19;19918;-74
2023/06/30 06:09:34;;;;;;;;;;;;;;;20.53;75.71;97828.59;7372881;19;19921;-74
2023/06/30 06:12:02;;;;;;;;;;;;;;;20.47;76.72;97830.34;7374290;19;19933;-74
2023/06/30 06:14:28;;;;;;;;;;;;;;;20.47;76.50;97824.97;7368939;19;19998;-74
2023/06/30 06:16:55;;;;;;;;;;;;;;;20.40;78.00;97835.00;7369600;19;19918;-74
2023/06/30 06:19:22;;;;;;;;;;;;;;;20.45;78.73;97832.44;7371413;19;19918;-74
2023/06/30 06:21:48;;;;;;;;;;;;;;;20.56;77.24;97834.38;7370166;19;19986;-74
2023/06/30 06:24:18;;;;;;;;;;;;;;;20.65;76.27;97837.53;7371647;19;19934;-75
2023/06/30 06:26:45;;;;;;;;;;;;;;;20.57;76.78;97832.50;7370218;19;20196;-76
2023/06/30 06:29:17;;;;;;;;;;;;;;;20.57;78.10;97819.06;7371674;19;20564;-74
2023/06/30 06:31:44;;;;;;;;;;;;;;;20.68;77.69;97826.31;7371537;19;19919;-74
2023/06/30 06:34:11;;;;;;;;;;;;;;;20.65;78.82;97831.34;7372139;19;19923;-75
2023/06/30 06:36:38;;;;;;;;;;;;;;;20.71;79.18;97835.75;7371652;19;19926;-74
2023/06/30 06:39:04;;;;;;;;;;;;;;;20.82;78.21;97833.06;7366001;19;19915;-74
2023/06/30 06:41:31;;;;;;;;;;;;;;;20.95;76.79;97833.88;7372248;19;19925;-74
2023/06/30 06:43:58;;;;;;;;;;;;;;;20.88;77.80;97835.88;7370167;19;19919;-74
2023/06/30 06:46:24;;;;;;;;;;;;;;;20.82;78.60;97837.63;7370124;19;19930;-74
2023/06/30 06:48:52;;;;;;;;;;;;;;;20.86;79.86;97833.44;7370236;19;20030;-76
2023/06/30 06:51:18;;;;;;;;;;;;;;;21.10;78.55;97836.09;7368503;19;19913;-74
2023/06/30 06:53:45;;;;;;;;;;;;;;;21.13;78.05;97843.69;7369508;19;19919;-74
2023/06/30 06:56:12;;;;;;;;;;;;;;;21.19;77.75;97843.53;7369934;19;19918;-74
2023/06/30 06:58:38;;;;;;;;;;;;;;;21.19;78.70;97840.84;7368455;19;19925;-74
2023/06/30 07:01:05;;;;;;;;;;;;;;;21.30;78.69;97846.44;7367521;19;19926;-74
2023/06/30 07:03:32;;;;;;;;;;;;;;;21.37;78.68;97839.88;7368708;19;19918;-73
2023/06/30 07:05:59;;;;;;;;;;;;;;;21.48;78.93;97844.47;7369190;19;19936;-74
2023/06/30 07:08:26;;;;;;;;;;;;;;;21.50;77.92;97838.81;7369855;19;20384;-74
2023/06/30 07:10:53;;;;;;;;;;;;;;;21.50;77.81;97844.19;7364875;19;19922;-74
2023/06/30 07:13:20;;;;;;;;;;;;;;;21.51;77.73;97839.63;7373687;19;20687;-74
2023/06/30 07:15:50;;;;;;;;;;;;;;;21.45;77.68;97831.44;7368909;19;19946;-74
2023/06/30 07:18:20;;;;;;;;;;;;;;;21.35;78.19;97841.97;7372046;19;19926;-73
2023/06/30 07:20:47;;;;;;;;;;;;;;;21.44;78.65;97843.28;7369508;19;19923;-74
2023/06/30 07:23:14;;;;;;;;;;;;;;;21.55;77.94;97843.50;7368479;19;20424;-75
2023/06/30 07:25:41;;;;;;;;;;;;;;;21.55;77.71;97849.69;7367224;19;19915;-74
2023/06/30 07:28:08;;;;;;;;;;;;;;;21.70;77.70;97855.38;7370689;19;19943;-75
2023/06/30 07:30:36;;;;;;;;;;;;;;;21.55;77.12;97844.31;7365214;19;19915;-74
2023/06/30 07:33:02;;;;;;;;;;;;;;;21.44;75.54;97850.53;7367949;19;19919;-74
2023/06/30 07:35:30;;;;;;;;;;;;;;;21.52;77.33;97847.47;7372372;19;19935;-74
2023/06/30 07:37:56;;;;;;;;;;;;;;;21.67;77.75;97853.16;7371998;19;19950;-75
2023/06/30 07:40:23;;;;;;;;;;;;;;;21.82;78.07;97843.72;7383395;19;19945;-76
2023/06/30 07:42:50;;;;;;;;;;;;;;;21.86;76.90;97842.19;7379912;19;19949;-75
2023/06/30 07:45:17;;;;;;;;;;;;;;;21.81;77.63;97855.56;7383274;19;20459;-73
2023/06/30 07:47:45;;;;;;;;;;;;;;;21.78;74.77;97870.31;7384499;19;19985;-74
2023/06/30 07:50:12;;;;;;;;;;;;;;;21.53;77.00;97867.13;7384551;19;19922;-74
2023/06/30 07:52:40;;;;;;;;;;;;;;;21.66;77.26;97875.75;7387944;19;20528;-74
2023/06/30 07:55:10;;;;;;;;;;;;;;;21.68;77.47;97880.91;7384735;19;19942;-74
2023/06/30 07:57:36;;;;;;;;;;;;;;;21.59;77.96;97893.09;7376969;19;19924;-74
2023/06/30 08:00:06;;;;;;;;;;;;;;;21.65;77.34;97903.72;7381159;19;19915;-73
2023/06/30 08:02:39;;;;;;;;;;;;;;;21.44;77.49;97899.00;7387580;19;19930;-74
2023/06/30 08:05:06;;;;;;;;;;;;;;;21.32;78.38;97907.03;7385039;19;19926;-74
2023/06/30 08:07:33;;;;;;;;;;;;;;;21.39;77.24;97906.94;7382107;19;19918;-74
2023/06/30 08:10:17;;;;;;;;;;;;;;;21.35;77.50;97900.34;7383766;19;19953;-74
2023/06/30 08:12:44;;;;;;;;;;;;;;;21.30;78.41;97902.94;7381060;19;19923;-74
2023/06/30 08:15:13;;;;;;;;;;;;;;;21.41;78.14;97905.66;7381413;19;19926;-74
2023/06/30 08:17:40;;;;;;;;;;;;;;;21.36;78.64;97912.78;7382908;19;19935;-74
2023/06/30 08:20:24;;;;;;;;;;;;;;;21.36;78.83;97915.47;7386977;19;20325;-74
2023/06/30 08:22:51;;;;;;;;;;;;;;;21.35;79.52;97911.13;7384867;19;20368;-74
2023/06/30 08:25:21;;;;;;;;;;;;;;;21.47;79.18;97914.66;7379725;19;19931;-74
2023/06/30 08:27:48;;;;;;;;;;;;;;;21.47;77.11;97915.47;7382741;19;19971;-74
2023/06/30 08:30:15;;;;;;;;;;;;;;;21.24;78.16;97915.47;7381101;19;19947;-73
2023/06/30 08:32:42;;;;;;;;;;;;;;;21.39;76.33;97918.53;7381638;19;19922;-74
2023/06/30 08:35:09;;;;;;;;;;;;;;;21.32;74.72;97925.06;7378825;19;19911;-73
2023/06/30 08:37:37;;;;;;;;;;;;;;;21.15;74.62;97920.41;7381100;19;19940;-74
2023/06/30 08:40:04;;;;;;;;;;;;;;;21.23;75.56;97924.59;7380176;19;19922;-73
2023/06/30 08:42:31;;;;;;;;;;;;;;;21.13;75.60;97924.38;7381227;19;20307;-74
2023/06/30 08:44:58;;;;;;;;;;;;;;;21.15;75.72;97927.66;7377200;19;19933;-74
2023/06/30 08:47:25;;;;;;;;;;;;;;;21.09;76.73;97926.72;7380303;19;19926;-75
2023/06/30 08:49:52;;;;;;;;;;;;;;;20.76;76.09;97928.09;7376648;19;19919;-75
2023/06/30 08:52:19;;;;;;;;;;;;;;;20.86;76.58;97921.34;7376088;19;19933;-73
2023/06/30 08:54:46;;;;;;;;;;;;;;;20.81;78.58;97922.03;7371988;19;20304;-73
2023/06/30 08:57:17;;;;;;;;;;;;;;;20.79;77.55;97921.44;7373780;19;21363;-74
2023/06/30 08:59:44;;;;;;;;;;;;;;;20.81;77.77;97914.78;7378653;19;19922;-73
2023/06/30 09:02:11;;;;;;;;;;;;;;;20.77;78.49;97919.00;7377434;19;20287;-73
2023/06/30 09:07:28;;;;;;;;;;;;;;;20.99;nan;97919.22;7373651;19;19919;-72
2023/06/30 09:09:56;;;;;;;;;;;;;;;21.08;80.98;97914.31;7369716;19;19923;-73
2023/06/30 09:12:24;;;;;;;;;;;;;;;21.07;80.14;97915.38;7369750;19;19922;-74
2023/06/30 09:14:51;;;;;;;;;;;;;;;21.05;78.95;97912.09;7372423;19;19988;-72
2023/06/30 09:17:18;;;;;;;;;;;;;;;21.03;79.43;97920.38;7367629;19;19939;-72
2023/06/30 09:19:44;;;;;;;;;;;;;;;21.04;79.31;97923.91;7372191;19;19923;-72
2023/06/30 09:22:11;;;;;;;;;;;;;;;20.97;78.92;97921.31;7374763;19;21213;-72
2023/06/30 09:24:59;;;;;;;;;;;;;;;20.96;80.94;97914.31;7370844;19;20710;-72
2023/06/30 09:27:27;;;;;;;;;;;;;;;21.04;80.68;97916.66;7372754;19;19915;-72
2023/06/30 09:29:54;;;;;;;;;;;;;;;21.18;80.09;97901.09;7372825;19;19923;-72
2023/06/30 09:32:31;;;;;;;;;;;;;;;21.44;79.49;97909.75;7369367;19;19918;-72
2023/06/30 09:35:07;;;;;;;;;;;;;;;21.43;80.05;97905.41;7369442;19;20354;-72
2023/06/30 09:37:41;;;;;;;;;;;;;;;21.47;80.46;97899.31;7369404;19;19941;-72
2023/06/30 09:40:14;;;;;;;;;;;;;;;21.47;80.14;97904.69;7372970;19;19919;-72
2023/06/30 09:42:42;;;;;;;;;;;;;;;21.46;80.49;97903.06;7373339;19;19923;-72
2023/06/30 09:45:10;;;;;;;;;;;;;;;21.56;78.78;97897.06;7369664;19;19994;-73
2023/06/30 09:47:37;;;;;;;;;;;;;;;21.65;79.69;97902.91;7376959;19;19923;-72
2023/06/30 09:50:07;;;;;;;;;;;;;;;21.68;79.15;97899.75;7370333;19;19926;-72
2023/06/30 09:52:34;;;;;;;;;;;;;;;21.70;80.57;97908.41;7368720;19;19923;-72
2023/06/30 09:55:10;;;;;;;;;;;;;;;21.68;79.47;97895.16;7366834;19;19922;-73
2023/06/30 09:57:36;;;;;;;;;;;;;;;21.68;79.46;97902.44;7373240;19;20014;-72
2023/06/30 10:00:04;;;;;;;;;;;;;;;21.84;77.91;97898.16;7372534;19;19918;-72
2023/06/30 10:02:31;;;;;;;;;;;;;;;21.70;80.07;97909.22;7374687;19;19919;-72
2023/06/30 10:04:58;;;;;;;;;;;;;;;21.52;81.14;97901.31;7373304;19;19975;-73
2023/06/30 10:07:25;;;;;;;;;;;;;;;21.59;80.88;97896.63;7372951;19;19945;-72
2023/06/30 10:09:52;;;;;;;;;;;;;;;21.65;81.97;97897.53;7369104;19;19931;-72
2023/06/30 10:12:18;;;;;;;;;;;;;;;21.76;80.49;97896.66;7371705;19;20305;-72
2023/06/30 10:14:47;;;;;;;;;;;;;;;21.79;80.24;97895.38;7371701;19;20702;-72
2023/06/30 10:17:13;;;;;;;;;;;;;;;21.66;81.67;97907.22;7374709;19;20677;-72
2023/06/30 10:19:40;;;;;;;;;;;;;;;21.78;79.82;97901.81;7370836;19;19930;-72
2023/06/30 10:22:07;;;;;;;;;;;;;;;21.80;81.18;97899.69;7369641;19;19926;-72
2023/06/30 10:24:42;;;;;;;;;;;;;;;21.72;82.08;97900.06;7368730;19;19926;-72
2023/06/30 10:27:09;;;;;;;;;;;;;;;21.78;82.40;97904.53;7364090;19;19918;-72
2023/06/30 10:29:36;;;;;;;;;;;;;;;21.85;82.31;97903.31;7366821;19;19971;-72
2023/06/30 10:32:03;;;;;;;;;;;;;;;22.00;80.36;97902.78;7368161;19;19914;-72
2023/06/30 10:34:30;;;;;;;;;;;;;;;21.71;79.48;97904.66;7372504;19;19933;-73
2023/06/30 10:36:58;;;;;;;;;;;;;;;21.67;81.09;97903.50;7370957;19;20626;-71
2023/06/30 10:39:25;;;;;;;;;;;;;;;21.85;81.22;97908.72;7370253;19;20013;-71
2023/06/30 10:41:51;;;;;;;;;;;;;;;22.01;80.12;97901.75;7368156;19;19914;-72
2023/06/30 10:44:20;;;;;;;;;;;;;;;22.05;79.37;97905.56;7370296;19;19927;-72
2023/06/30 10:46:47;;;;;;;;;;;;;;;22.17;80.76;97896.59;7367740;19;19927;-72
2023/06/30 10:49:32;;;;;;;;;;;;;;;22.37;81.40;97891.59;7369282;19;19927;-72
2023/06/30 10:52:00;;;;;;;;;;;;;;;22.29;76.85;97895.53;7367816;19;19919;-74
2023/06/30 10:54:40;;;;;;;;;;;;;;;22.30;80.35;97890.94;7360907;19;19951;-72
2023/06/30 10:57:10;;;;;;;;;;;;;;;22.32;78.52;97895.03;7367413;19;19967;-72
2023/06/30 10:59:38;;;;;;;;;;;;;;;22.35;77.64;97893.72;7367175;19;19921;-72
2023/06/30 11:02:13;;;;;;;;;;;;;;;22.27;79.75;97899.50;7370048;19;19919;-72
2023/06/30 11:04:41;;;;;;;;;;;;;;;22.12;78.04;97913.50;7373852;19;19927;-73
2023/06/30 11:07:10;;;;;;;;;;;;;;;21.82;78.97;97913.75;7365754;19;19918;-75
2023/06/30 11:09:48;;;;;;;;;;;;;;;21.71;79.28;97923.50;7373843;19;19932;-74
2023/06/30 11:12:19;;;;;;;;;;;;;;;21.67;81.28;97925.03;7372740;19;20261;-74
2023/06/30 11:14:53;;;;;;;;;;;;;;;21.73;78.96;97912.50;7366033;19;19919;-74
2023/06/30 11:17:19;;;;;;;;;;;;;;;21.80;79.44;97905.91;7367312;19;19915;-74
2023/06/30 11:20:01;;;;;;;;;;;;;;;21.77;81.21;97900.97;7372053;19;19927;-74
2023/06/30 11:22:31;;;;;;;;;;;;;;;21.96;80.76;97890.03;7372987;19;19926;-75
2023/06/30 11:24:58;;;;;;;;;;;;;;;22.00;80.23;97892.00;7372754;19;19911;-73
2023/06/30 11:27:27;;;;;;;;;;;;;;;22.07;80.52;97881.09;7368382;19;19926;-74
2023/06/30 11:29:54;;;;;;;;;;;;;;;22.19;79.95;97878.34;7364636;19;19951;-74
2023/06/30 11:32:25;;;;;;;;;;;;;;;22.45;79.51;97880.44;7365388;19;20357;-74
2023/06/30 11:34:51;;;;;;;;;;;;;;;22.56;78.76;97882.25;7366284;19;19930;-73
2023/06/30 11:37:18;;;;;;;;;;;;;;;22.52;78.26;97880.28;7374456;19;19927;-73
2023/06/30 11:39:54;;;;;;;;;;;;;;;22.58;78.41;97880.09;7372879;19;19962;-73
2023/06/30 11:42:21;;;;;;;;;;;;;;;22.56;78.18;97878.72;7371979;19;19954;-73
2023/06/30 11:44:51;;;;;;;;;;;;;;;22.57;79.03;97886.56;7372810;19;19944;-73
2023/06/30 11:47:18;;;;;;;;;;;;;;;22.66;77.55;97886.97;7367075;19;19990;-73
2023/06/30 11:49:48;;;;;;;;;;;;;;;22.47;76.43;97890.97;7367387;19;19922;-72
2023/06/30 11:52:15;;;;;;;;;;;;;;;22.37;76.36;97891.59;7366505;19;19919;-72
2023/06/30 11:54:41;;;;;;;;;;;;;;;22.33;74.50;97885.91;7371746;19;19940;-71
2023/06/30 11:57:08;;;;;;;;;;;;;;;22.34;76.65;97887.53;7367753;19;19974;-72
2023/06/30 11:59:35;;;;;;;;;;;;;;;22.44;74.17;97880.69;7368151;19;19917;-72
2023/06/30 12:02:02;;;;;;;;;;;;;;;22.42;75.91;97882.81;7371527;19;20358;-72
2023/06/30 12:04:35;;;;;;;;;;;;;;;22.57;75.38;97889.25;7362195;19;20328;-72
2023/06/30 12:07:03;;;;;;;;;;;;;;;22.56;75.35;97878.72;7364820;19;19911;-72
2023/06/30 12:09:30;;;;;;;;;;;;;;;22.66;76.03;97884.25;7368101;19;19919;-72
2023/06/30 12:11:56;;;;;;;;;;;;;;;22.54;75.51;97880.84;7366768;19;19941;-72
2023/06/30 12:14:25;;;;;;;;;;;;;;;22.61;77.13;97881.50;7367769;19;19918;-72
2023/06/30 12:16:54;;;;;;;;;;;;;;;22.72;75.39;97879.75;7368100;19;20700;-72
2023/06/30 12:19:24;;;;;;;;;;;;;;;23.02;75.10;97876.75;7372203;19;19927;-72
2023/06/30 12:21:55;;;;;;;;;;;;;;;22.85;76.42;97874.03;7361479;19;19937;-72
2023/06/30 12:24:22;;;;;;;;;;;;;;;22.84;76.81;97877.81;7366328;19;19915;-72
2023/06/30 12:26:51;;;;;;;;;;;;;;;22.81;73.81;97877.50;7370444;19;19915;-72
2023/06/30 12:29:18;;;;;;;;;;;;;;;22.81;75.16;97874.78;7372529;19;20540;-74
2023/06/30 12:31:46;;;;;;;;;;;;;;;22.82;75.62;97879.13;7371929;19;19919;-72
2023/06/30 12:34:32;;;;;;;;;;;;;;;22.76;76.48;97873.63;7372885;19;20220;-72
2023/06/30 12:36:59;;;;;;;;;;;;;;;22.76;77.26;97883.63;7376306;19;19918;-72
2023/06/30 12:39:27;;;;;;;;;;;;;;;22.73;76.98;97876.84;7380157;19;19929;-72
2023/06/30 12:41:53;;;;;;;;;;;;;;;22.87;76.53;97873.78;7372326;19;19915;-72
2023/06/30 12:44:20;;;;;;;;;;;;;;;22.79;75.64;97880.41;7377184;19;19914;-72
2023/06/30 12:47:06;;;;;;;;;;;;;;;22.78;75.51;97873.41;7376240;19;19998;-72
2023/06/30 12:49:36;;;;;;;;;;;;;;;22.84;74.39;97874.28;7379040;19;19919;-72
2023/06/30 12:52:03;;;;;;;;;;;;;;;22.92;72.46;97876.56;7378879;19;19926;-71
2023/06/30 12:54:30;;;;;;;;;;;;;;;22.87;72.29;97873.78;7381027;19;19975;-72